createdAt,value
2019-04-25T00:00:47.780Z,20.53
2019-04-25T00:03:22.309Z,9.50
2019-04-25T00:05:52.305Z,13.37
2019-04-25T00:08:21.679Z,10.43
2019-04-25T00:10:51.717Z,12.40
2019-04-25T00:13:21.787Z,13.97
2019-04-25T00:15:51.889Z,10.60
2019-04-25T00:18:23.391Z,16.50
2019-04-25T00:20:54.131Z,9.90
2019-04-25T00:23:25.041Z,13.97
2019-04-25T00:25:58.286Z,15.30
2019-04-25T00:28:29.126Z,11.13
2019-04-25T00:30:57.833Z,12.63
2019-04-25T00:33:26.907Z,12.37
2019-04-25T00:36:02.041Z,10.70
2019-04-25T00:38:34.261Z,14.70
2019-04-25T00:41:03.397Z,30.70
2019-04-25T00:43:32.409Z,10.73
2019-04-25T00:46:01.580Z,14.67
2019-04-25T00:48:31.679Z,12.83
2019-04-25T00:51:01.953Z,18.23
2019-04-25T00:53:32.632Z,15.23
2019-04-25T00:56:01.620Z,11.70
2019-04-25T00:58:43.940Z,14.07
2019-04-25T01:01:19.011Z,14.07
2019-04-25T01:03:49.342Z,17.93
2019-04-25T01:06:25.915Z,24.73
2019-04-25T01:08:57.898Z,21.00
2019-04-25T01:11:28.297Z,20.67
2019-04-25T01:13:59.828Z,43.40
2019-04-25T01:16:31.778Z,29.57
2019-04-25T01:18:59.310Z,25.83
2019-04-25T01:21:34.306Z,40.20
2019-04-25T01:24:04.314Z,23.33
2019-04-25T01:26:38.201Z,27.13
2019-04-25T01:29:06.772Z,25.53
2019-04-25T01:31:35.724Z,25.87
2019-04-25T01:34:09.199Z,27.63
2019-04-25T01:39:30.733Z,34.73
2019-04-25T01:42:20.653Z,29.10
2019-04-25T01:44:51.662Z,41.83
2019-04-25T01:47:23.882Z,23.13
2019-04-25T01:49:54.580Z,24.87
2019-04-25T01:52:24.964Z,20.43
2019-04-25T01:54:56.231Z,26.60
2019-04-25T01:57:27.444Z,19.90
2019-04-25T01:59:56.407Z,24.43
2019-04-25T02:02:29.102Z,21.17
2019-04-25T02:04:59.969Z,19.53
2019-04-25T02:07:33.370Z,12.63
2019-04-25T02:10:03.750Z,27.70
2019-04-25T02:12:40.102Z,13.37
2019-04-25T02:15:10.937Z,17.10
2019-04-25T02:17:40.492Z,15.20
2019-04-25T02:20:11.977Z,13.33
2019-04-25T02:22:44.427Z,15.87
2019-04-25T02:25:13.315Z,15.70
2019-04-25T02:27:44.026Z,19.83
2019-04-25T02:30:15.629Z,19.87
2019-04-25T02:32:44.882Z,12.00
2019-04-25T02:35:16.825Z,15.27
2019-04-25T02:37:47.279Z,12.40
2019-04-25T02:40:18.969Z,15.53
2019-04-25T02:42:47.905Z,12.83
2019-04-25T02:45:36.918Z,9.57
2019-04-25T02:48:25.984Z,13.00
2019-04-25T02:51:04.694Z,8.27
2019-04-25T02:53:37.204Z,8.50
2019-04-25T02:56:25.730Z,11.33
2019-04-25T02:58:39.303Z,10.27
2019-04-25T03:01:17.972Z,13.10
2019-04-25T03:03:41.091Z,9.43
2019-04-25T03:06:11.434Z,11.57
2019-04-25T03:08:44.917Z,8.87
2019-04-25T03:11:15.406Z,15.67
2019-04-25T03:13:44.646Z,7.57
2019-04-25T03:16:14.655Z,10.40
2019-04-25T03:18:54.538Z,5.43
2019-04-25T03:21:40.010Z,5.70
2019-04-25T03:24:13.981Z,7.40
2019-04-25T03:26:40.956Z,8.90
2019-04-25T03:29:09.860Z,7.43
2019-04-25T03:31:38.795Z,6.90
2019-04-25T03:34:14.013Z,5.53
2019-04-25T03:36:40.249Z,9.63
2019-04-25T03:39:09.178Z,8.57
2019-04-25T03:41:39.511Z,6.83
2019-04-25T03:44:08.408Z,12.33
2019-04-25T03:46:37.356Z,9.73
2019-04-25T03:49:07.613Z,9.90
2019-04-25T03:51:38.450Z,11.00
2019-04-25T03:54:10.304Z,10.70
2019-04-25T03:56:49.836Z,9.00
2019-04-25T03:59:11.493Z,8.80
2019-04-25T04:01:40.437Z,9.57
2019-04-25T04:04:11.127Z,6.70
2019-04-25T04:06:40.189Z,9.33
2019-04-25T04:09:09.834Z,7.60
2019-04-25T04:11:38.813Z,13.67
2019-04-25T04:14:08.237Z,9.40
2019-04-25T04:16:38.872Z,8.87
2019-04-25T04:19:08.836Z,13.03
2019-04-25T04:21:45.218Z,10.13
2019-04-25T04:24:16.076Z,5.87
2019-04-25T04:26:46.633Z,11.57
2019-04-25T04:29:16.382Z,13.97
2019-04-25T04:31:45.426Z,10.37
2019-04-25T04:34:14.734Z,13.03
2019-04-25T04:36:46.578Z,8.50
2019-04-25T04:39:16.820Z,12.03
2019-04-25T04:41:46.209Z,11.77
2019-04-25T04:44:15.624Z,7.03
2019-04-25T04:46:45.465Z,5.80
2019-04-25T04:49:15.300Z,6.80
2019-04-25T04:51:45.395Z,9.20
2019-04-25T04:54:15.275Z,7.77
2019-04-25T04:56:44.364Z,8.37
2019-04-25T04:59:14.627Z,10.97
2019-04-25T05:02:00.804Z,6.40
2019-04-25T05:04:36.727Z,4.53
2019-04-25T05:07:07.194Z,5.97
2019-04-25T05:09:36.093Z,9.90
2019-04-25T05:12:04.998Z,9.50
2019-04-25T05:14:33.929Z,8.10
2019-04-25T05:17:04.275Z,8.40
2019-04-25T05:19:34.575Z,10.00
2019-04-25T05:22:03.682Z,7.00
2019-04-25T05:24:33.896Z,8.37
2019-04-25T05:27:05.017Z,17.70
2019-04-25T05:29:33.982Z,12.07
2019-04-25T05:32:04.237Z,9.20
2019-04-25T05:34:34.475Z,5.90
2019-04-25T05:37:03.898Z,9.70
2019-04-25T05:39:33.429Z,11.70
2019-04-25T05:42:04.606Z,10.67
2019-04-25T05:44:34.740Z,17.50
2019-04-25T05:47:04.170Z,13.23
2019-04-25T05:49:35.957Z,12.13
2019-04-25T05:52:04.949Z,13.73
2019-04-25T05:54:38.054Z,21.20
2019-04-25T05:57:07.020Z,19.17
2019-04-25T05:59:35.945Z,15.70
2019-04-25T06:02:04.865Z,10.30
2019-04-25T06:04:33.764Z,11.70
2019-04-25T06:07:02.740Z,16.00
2019-04-25T06:09:39.073Z,19.93
2019-04-25T06:12:25.939Z,30.23
2019-04-25T06:14:56.431Z,15.53
2019-04-25T06:17:34.185Z,27.93
2019-04-25T06:20:09.566Z,18.67
2019-04-25T06:22:50.923Z,27.90
2019-04-25T06:25:24.073Z,25.83
2019-04-25T06:27:57.290Z,30.70
2019-04-25T06:30:27.379Z,24.30
2019-04-25T06:33:00.052Z,23.77
2019-04-25T06:35:29.522Z,35.00
2019-04-25T06:37:58.607Z,22.80
2019-04-25T06:40:29.722Z,28.93
2019-04-25T06:42:58.785Z,35.97
2019-04-25T06:45:46.776Z,28.50
2019-04-25T06:48:27.102Z,43.07
2019-04-25T06:53:57.393Z,21.20
2019-04-25T06:56:37.682Z,36.93
2019-04-25T07:00:28.496Z,33.47
2019-04-25T07:01:46.091Z,29.70
2019-04-25T07:06:54.007Z,32.83
2019-04-25T07:09:47.435Z,31.27
2019-04-25T07:12:19.318Z,23.53
2019-04-25T07:14:51.152Z,35.00
2019-04-25T07:17:24.202Z,38.57
2019-04-25T07:19:54.938Z,30.27
2019-04-25T07:22:25.625Z,23.53
2019-04-25T07:24:55.443Z,24.03
2019-04-25T07:27:35.622Z,30.47
2019-04-25T07:30:31.915Z,16.53
2019-04-25T07:33:03.879Z,21.20
2019-04-25T07:35:33.776Z,20.47
2019-04-25T07:38:04.014Z,19.33
2019-04-25T07:40:34.053Z,16.07
2019-04-25T07:43:06.914Z,21.63
2019-04-25T07:45:36.286Z,23.00
2019-04-25T07:48:05.448Z,23.93
2019-04-25T07:50:35.423Z,21.47
2019-04-25T07:53:05.711Z,16.40
2019-04-25T07:55:36.351Z,19.43
2019-04-25T07:58:05.986Z,20.60
2019-04-25T08:00:35.505Z,19.20
2019-04-25T08:03:06.408Z,14.83
2019-04-25T08:05:36.371Z,15.60
2019-04-25T08:08:05.556Z,14.50
2019-04-25T08:10:58.465Z,13.97
2019-04-25T08:13:30.184Z,13.90
2019-04-25T08:16:00.763Z,10.33
2019-04-25T08:18:30.290Z,10.27
2019-04-25T08:21:00.167Z,12.03
2019-04-25T08:23:32.060Z,12.80
2019-04-25T08:26:07.056Z,11.43
2019-04-25T08:28:48.931Z,10.70
2019-04-25T08:31:07.156Z,9.93
2019-04-25T08:33:36.875Z,10.87
2019-04-25T08:36:09.332Z,8.47
2019-04-25T08:38:38.465Z,8.27
2019-04-25T08:41:07.703Z,7.30
2019-04-25T08:43:39.088Z,6.50
2019-04-25T08:46:09.048Z,7.43
2019-04-25T08:49:02.082Z,6.57
2019-04-25T08:51:34.816Z,6.60
2019-04-25T08:54:17.684Z,5.60
2019-04-25T08:56:46.685Z,4.50
2019-04-25T08:59:46.058Z,4.10
2019-04-25T09:02:23.407Z,6.57
2019-04-25T09:04:59.257Z,4.40
2019-04-25T09:07:28.556Z,2.97
2019-04-25T09:09:57.533Z,3.47
2019-04-25T09:12:26.574Z,2.73
2019-04-25T09:14:55.506Z,2.10
2019-04-25T09:17:24.687Z,1.90
2019-04-25T09:19:55.272Z,1.87
2019-04-25T09:22:25.592Z,1.70
2019-04-25T09:24:54.515Z,2.00
2019-04-25T09:27:24.525Z,1.13
2019-04-25T09:29:54.188Z,1.60
2019-04-25T09:32:23.855Z,1.00
2019-04-25T09:34:54.445Z,1.00
2019-04-25T09:37:24.605Z,1.23
2019-04-25T09:39:58.455Z,1.07
2019-04-25T09:42:27.542Z,0.90
2019-04-25T09:45:16.069Z,0.77
2019-04-25T09:47:46.740Z,0.70
2019-04-25T09:50:18.082Z,1.40
2019-04-25T09:52:50.592Z,1.07
2019-04-25T09:55:26.906Z,0.93
2019-04-25T09:57:57.388Z,0.60
2019-04-25T10:00:28.010Z,0.80
2019-04-25T10:02:57.210Z,0.90
2019-04-25T10:05:27.865Z,0.87
2019-04-25T10:07:58.396Z,0.90
2019-04-25T10:10:28.048Z,0.37
2019-04-25T10:12:57.174Z,0.62
2019-04-25T10:15:47.860Z,0.72
2019-04-25T10:18:18.065Z,0.50
2019-04-25T10:20:49.496Z,0.60
2019-04-25T10:23:20.368Z,0.85
2019-04-25T10:25:49.812Z,0.70
2019-04-25T10:28:18.893Z,0.78
2019-04-25T10:30:50.017Z,0.35
2019-04-25T10:33:22.367Z,0.80
2019-04-25T10:35:55.912Z,0.80
2019-04-25T10:38:24.174Z,1.07
2019-04-25T10:40:53.695Z,1.00
2019-04-25T10:43:25.363Z,1.00
2019-04-25T10:46:09.441Z,0.57
2019-04-25T10:48:39.969Z,0.93
2019-04-25T10:51:09.184Z,0.70
2019-04-25T10:53:38.148Z,0.45
2019-04-25T10:56:07.914Z,0.70
2019-04-25T10:58:37.029Z,0.82
2019-04-25T11:01:07.948Z,0.65
2019-04-25T11:03:54.447Z,0.60
2019-04-25T11:06:27.948Z,0.55
2019-04-25T11:08:56.899Z,1.10
2019-04-25T11:11:26.348Z,0.68
2019-04-25T11:13:57.686Z,1.00
2019-04-25T11:16:28.268Z,1.00
2019-04-25T11:18:59.901Z,1.05
2019-04-25T11:21:30.278Z,2.15
2019-04-25T11:23:59.216Z,1.67
2019-04-25T11:26:34.537Z,1.75
2019-04-25T11:29:03.646Z,1.87
2019-04-25T11:31:34.231Z,1.80
2019-04-25T11:34:03.642Z,1.70
2019-04-25T11:36:34.062Z,1.27
2019-04-25T11:39:21.317Z,1.50
2019-04-25T11:41:51.326Z,0.95
2019-04-25T11:44:20.408Z,1.40
2019-04-25T11:46:50.351Z,1.92
2019-04-25T11:49:23.885Z,1.12
2019-04-25T11:51:52.418Z,1.05
2019-04-25T11:54:21.622Z,1.30
2019-04-25T11:56:50.764Z,1.22
2019-04-25T11:59:19.862Z,1.50
2019-04-25T12:01:49.823Z,0.98
2019-04-25T12:04:20.779Z,1.70
2019-04-25T12:06:49.772Z,1.30
2019-04-25T12:09:20.754Z,1.40
2019-04-25T12:11:49.938Z,2.33
2019-04-25T12:14:19.105Z,1.87
2019-04-25T12:16:50.315Z,2.35
2019-04-25T12:19:18.725Z,2.02
2019-04-25T12:21:48.173Z,2.37
2019-04-25T12:24:18.013Z,2.50
2019-04-25T12:26:47.797Z,2.72
2019-04-25T12:29:19.800Z,2.87
2019-04-25T12:31:50.702Z,3.90
2019-04-25T12:34:19.298Z,3.95
2019-04-25T12:36:48.487Z,4.45
2019-04-25T12:39:17.623Z,3.10
2019-04-25T12:41:48.100Z,3.60
2019-04-25T12:44:37.102Z,3.72
2019-04-25T12:47:19.412Z,2.95
2019-04-25T12:49:48.629Z,3.58
2019-04-25T12:52:17.781Z,3.47
2019-04-25T12:54:47.545Z,4.20
2019-04-25T12:57:17.318Z,4.00
2019-04-25T12:59:51.291Z,5.40
2019-04-25T13:02:20.247Z,3.87
2019-04-25T13:04:49.329Z,3.77
2019-04-25T13:07:18.262Z,6.90
2019-04-25T13:09:48.307Z,5.33
2019-04-25T13:12:18.566Z,4.65
2019-04-25T13:14:49.061Z,4.05
2019-04-25T13:17:18.221Z,3.45
2019-04-25T13:19:48.018Z,3.20
2019-04-25T13:22:18.587Z,2.92
2019-04-25T13:24:47.607Z,3.52
2019-04-25T13:27:23.965Z,2.80
2019-04-25T13:30:00.890Z,2.87
2019-04-25T13:32:31.558Z,2.80
2019-04-25T13:35:23.414Z,2.97
2019-04-25T13:37:53.900Z,3.47
2019-04-25T13:40:23.697Z,3.37
2019-04-25T13:42:53.220Z,3.23
2019-04-25T13:45:22.322Z,3.07
2019-04-25T13:47:51.232Z,3.03
2019-04-25T13:50:23.971Z,2.80
2019-04-25T13:52:53.341Z,1.80
2019-04-25T13:55:23.985Z,2.83
2019-04-25T13:57:54.786Z,2.62
2019-04-25T14:00:27.725Z,2.25
2019-04-25T14:02:55.849Z,2.55
2019-04-25T14:05:26.377Z,3.25
2019-04-25T14:07:56.963Z,3.22
2019-04-25T14:10:26.520Z,2.98
2019-04-25T14:12:55.699Z,2.70
2019-04-25T14:15:25.479Z,2.42
2019-04-25T14:17:55.960Z,1.62
2019-04-25T14:20:30.013Z,3.77
2019-04-25T14:22:59.298Z,2.87
2019-04-25T14:25:28.553Z,4.00
2019-04-25T14:27:57.687Z,3.05
2019-04-25T14:30:28.397Z,3.12
2019-04-25T14:32:57.409Z,3.35
2019-04-25T14:35:26.870Z,1.82
2019-04-25T14:37:58.291Z,3.95
2019-04-25T14:40:28.923Z,3.13
2019-04-25T14:42:57.864Z,4.37
2019-04-25T14:45:42.411Z,3.90
2019-04-25T14:47:59.759Z,3.73
2019-04-25T14:50:28.698Z,4.20
2019-04-25T14:52:57.988Z,4.07
2019-04-25T14:55:31.652Z,3.90
2019-04-25T14:58:01.138Z,3.40
2019-04-25T15:00:46.948Z,4.53
2019-04-25T15:03:15.989Z,3.90
2019-04-25T15:05:45.051Z,4.67
2019-04-25T15:08:15.570Z,3.60
2019-04-25T15:10:48.416Z,5.10
2019-04-25T15:13:17.634Z,4.67
2019-04-25T15:15:49.392Z,4.10
2019-04-25T15:18:18.389Z,4.17
2019-04-25T15:20:47.387Z,4.77
2019-04-25T15:23:18.985Z,4.40
2019-04-25T15:25:48.028Z,4.10
2019-04-25T15:28:16.969Z,3.57
2019-04-25T15:30:46.039Z,2.73
2019-04-25T15:33:17.330Z,3.77
2019-04-25T15:35:57.828Z,2.63
2019-04-25T15:38:29.052Z,2.00
2019-04-25T15:44:14.339Z,2.20
2019-04-25T15:46:45.151Z,2.30
2019-04-25T15:49:15.557Z,2.10
2019-04-25T15:51:46.099Z,1.80
2019-04-25T15:54:14.973Z,1.73
2019-04-25T15:56:43.875Z,2.00
2019-04-25T15:59:16.384Z,1.23
2019-04-25T16:01:45.331Z,2.00
2019-04-25T16:04:15.909Z,1.53
2019-04-25T16:06:44.978Z,2.13
2019-04-25T16:09:13.858Z,1.03
2019-04-25T16:11:42.760Z,2.53
2019-04-25T16:14:11.676Z,1.27
2019-04-25T16:16:40.557Z,1.67
2019-04-25T16:19:12.522Z,1.50
2019-04-25T16:21:42.227Z,2.80
2019-04-25T16:24:12.675Z,1.60
2019-04-25T16:26:42.439Z,2.47
2019-04-25T16:29:11.449Z,1.90
2019-04-25T16:31:42.738Z,1.00
2019-04-25T16:34:11.078Z,1.53
2019-04-25T16:36:40.035Z,1.50
2019-04-25T16:39:10.740Z,1.20
2019-04-25T16:41:41.300Z,1.20
2019-04-25T16:44:14.479Z,1.43
2019-04-25T16:46:43.359Z,1.10
2019-04-25T16:49:13.825Z,1.67
2019-04-25T16:51:42.756Z,1.50
2019-04-25T16:54:16.226Z,1.60
2019-04-25T16:56:45.309Z,1.83
2019-04-25T16:59:14.371Z,1.77
2019-04-25T17:01:46.278Z,1.13
2019-04-25T17:04:15.218Z,1.10
2019-04-25T17:06:44.431Z,1.80
2019-04-25T17:09:13.554Z,1.30
2019-04-25T17:11:42.478Z,1.93
2019-04-25T17:14:18.599Z,1.47
2019-04-25T17:16:53.009Z,1.67
2019-04-25T17:19:25.940Z,2.17
2019-04-25T17:21:56.743Z,2.17
2019-04-25T17:24:45.421Z,2.30
2019-04-25T17:27:15.111Z,1.40
2019-04-25T17:29:54.499Z,1.50
2019-04-25T17:32:50.323Z,1.30
2019-04-25T17:35:50.945Z,1.20
2019-04-25T17:38:35.433Z,0.90
2019-04-25T17:41:10.173Z,1.60
2019-04-25T17:43:49.635Z,1.30
2019-04-25T17:46:29.636Z,1.00
2019-04-25T17:49:26.602Z,0.80
2019-04-25T17:52:00.664Z,0.70
2019-04-25T17:54:40.928Z,0.97
2019-04-25T17:57:32.993Z,0.93
2019-04-25T18:03:09.435Z,1.17
2019-04-25T18:05:45.868Z,1.70
2019-04-25T18:08:27.142Z,2.03
2019-04-25T18:11:05.780Z,1.90
2019-04-25T18:13:49.565Z,1.57
2019-04-25T18:16:27.862Z,2.70
2019-04-25T18:19:07.775Z,1.90
2019-04-25T18:22:03.989Z,3.33
2019-04-25T18:25:21.241Z,3.80
2019-04-25T18:27:57.796Z,4.17
2019-04-25T18:30:27.647Z,5.33
2019-04-25T18:33:10.026Z,4.40
2019-04-25T18:35:33.259Z,4.60
2019-04-25T18:38:03.813Z,3.20
2019-04-25T18:40:40.124Z,4.17
2019-04-25T18:43:13.306Z,5.10
2019-04-25T18:45:44.470Z,6.67
2019-04-25T18:48:13.569Z,6.80
2019-04-25T18:50:42.600Z,5.27
2019-04-25T18:53:29.437Z,3.83
2019-04-25T18:56:05.806Z,4.20
2019-04-25T18:58:41.906Z,5.80
2019-04-25T19:01:18.141Z,5.00
2019-04-25T19:04:05.548Z,5.50
2019-04-25T19:06:34.460Z,4.00
2019-04-25T19:09:03.391Z,10.63
2019-04-25T19:11:32.378Z,3.83
2019-04-25T19:14:01.462Z,8.93
2019-04-25T19:16:30.373Z,9.23
2019-04-25T19:18:59.422Z,7.50
2019-04-25T19:21:28.529Z,4.73
2019-04-25T19:23:58.182Z,6.03
2019-04-25T19:26:27.099Z,10.23
2019-04-25T19:28:56.067Z,5.13
2019-04-25T19:31:25.261Z,8.17
2019-04-25T19:33:54.228Z,6.90
2019-04-25T19:36:23.202Z,5.73
2019-04-25T19:38:53.798Z,6.23
2019-04-25T19:41:30.386Z,6.00
2019-04-25T19:44:07.868Z,5.17
2019-04-25T19:46:38.385Z,4.83
2019-04-25T19:49:07.695Z,10.00
2019-04-25T19:51:37.049Z,8.27
2019-04-25T19:54:06.817Z,9.80
2019-04-25T19:56:35.973Z,10.67
2019-04-25T19:59:05.342Z,6.23
2019-04-25T20:01:35.419Z,10.17
2019-04-25T20:04:22.895Z,4.37
2019-04-25T20:07:08.445Z,8.93
2019-04-25T20:09:53.825Z,10.47
2019-04-25T20:12:30.526Z,14.37
2019-04-25T20:15:06.309Z,6.93
2019-04-25T20:17:35.252Z,7.63
2019-04-25T20:20:10.054Z,7.43
2019-04-25T20:22:57.508Z,11.33
2019-04-25T20:25:28.384Z,8.40
2019-04-25T20:27:57.375Z,10.83
2019-04-25T20:30:26.441Z,11.17
2019-04-25T20:32:55.724Z,13.63
2019-04-25T20:35:24.658Z,12.47
2019-04-25T20:37:53.629Z,12.43
2019-04-25T20:40:24.780Z,12.83
2019-04-25T20:42:54.143Z,10.57
2019-04-25T20:45:31.045Z,7.80
2019-04-25T20:48:01.566Z,8.87
2019-04-25T20:50:30.525Z,7.50
2019-04-25T20:52:59.520Z,9.10
2019-04-25T20:55:30.803Z,6.17
2019-04-25T20:57:59.811Z,5.80
2019-04-25T21:00:44.127Z,6.63
2019-04-25T21:03:17.360Z,8.97
2019-04-25T21:05:45.460Z,6.50
2019-04-25T21:08:14.415Z,5.67
2019-04-25T21:10:43.459Z,7.80
2019-04-25T21:13:16.127Z,6.53
2019-04-25T21:15:52.755Z,8.10
2019-04-25T21:18:29.197Z,6.83
2019-04-25T21:20:59.302Z,4.00
2019-04-25T21:23:28.951Z,4.73
2019-04-25T21:25:58.883Z,4.53
2019-04-25T21:28:42.379Z,4.23
2019-04-25T21:31:05.057Z,6.07
2019-04-25T21:33:34.236Z,4.87
2019-04-25T21:36:07.870Z,3.87
2019-04-25T21:38:38.634Z,5.97
2019-04-25T21:41:15.272Z,4.30
2019-04-25T21:43:56.080Z,3.00
2019-04-25T21:46:28.818Z,2.73
2019-04-25T21:49:05.019Z,2.57
2019-04-25T21:51:35.656Z,4.00
2019-04-25T21:54:06.725Z,2.77
2019-04-25T21:56:37.990Z,4.13
2019-04-25T21:59:08.331Z,4.87
2019-04-25T22:01:45.091Z,3.80
2019-04-25T22:04:17.049Z,2.67
2019-04-25T22:06:46.493Z,3.03
2019-04-25T22:09:17.080Z,5.07
2019-04-25T22:11:46.471Z,3.03
2019-04-25T22:14:18.028Z,3.33
2019-04-25T22:16:50.461Z,2.93
2019-04-25T22:19:21.573Z,3.13
2019-04-25T22:21:53.755Z,1.87
2019-04-25T22:24:23.051Z,3.07
2019-04-25T22:26:58.836Z,2.63
2019-04-25T22:29:32.360Z,3.83
2019-04-25T22:32:08.576Z,3.50
2019-04-25T22:34:51.733Z,3.23
2019-04-25T22:37:12.259Z,2.33
2019-04-25T22:39:45.321Z,3.03
2019-04-25T22:42:14.083Z,2.67
2019-04-25T22:44:43.102Z,3.07
2019-04-25T22:47:13.794Z,4.73
2019-04-25T22:49:42.842Z,2.80
2019-04-25T22:52:16.588Z,2.87
2019-04-25T22:54:48.279Z,2.87
2019-04-25T22:57:17.546Z,4.67
2019-04-25T22:59:48.602Z,3.07
2019-04-25T23:02:22.305Z,4.07
2019-04-25T23:05:16.089Z,2.20
2019-04-25T23:07:43.550Z,3.07
2019-04-25T23:10:22.986Z,2.73
2019-04-25T23:12:52.043Z,5.10
2019-04-25T23:15:22.231Z,3.73
2019-04-25T23:17:52.634Z,3.07
2019-04-25T23:20:21.878Z,2.57
2019-04-25T23:22:52.287Z,1.90
2019-04-25T23:25:22.995Z,3.17
2019-04-25T23:28:03.616Z,3.10
2019-04-25T23:30:34.875Z,4.77
2019-04-25T23:33:04.082Z,4.57
2019-04-25T23:35:35.285Z,2.87
2019-04-25T23:38:07.090Z,1.93
2019-04-25T23:40:36.248Z,4.03
2019-04-25T23:43:07.469Z,2.97
2019-04-25T23:45:36.230Z,5.07
2019-04-25T23:48:06.085Z,3.80
2019-04-25T23:50:36.597Z,4.10
2019-04-25T23:53:06.492Z,6.50
2019-04-25T23:55:37.899Z,5.33
2019-04-25T23:58:07.060Z,6.30
